createdAt,value
2023-04-26T00:01:28.621Z,64.56
2023-04-26T00:03:56.406Z,65.20
2023-04-26T00:06:23.162Z,65.46
2023-04-26T00:08:49.783Z,65.19
2023-04-26T00:11:16.289Z,65.40
2023-04-26T00:13:42.736Z,65.47
2023-04-26T00:16:09.241Z,64.81
2023-04-26T00:18:35.798Z,66.11
2023-04-26T00:21:02.774Z,64.91
2023-04-26T00:23:29.200Z,65.03
2023-04-26T00:25:57.028Z,66.36
2023-04-26T00:28:23.535Z,66.79
2023-04-26T00:30:51.272Z,65.28
2023-04-26T00:33:17.725Z,65.28
2023-04-26T00:35:44.417Z,65.04
2023-04-26T00:38:10.884Z,65.89
2023-04-26T00:40:37.511Z,66.85
2023-04-26T00:43:04.043Z,66.07
2023-04-26T00:45:30.726Z,66.09
2023-04-26T00:47:57.307Z,66.24
2023-04-26T00:50:24.507Z,67.62
2023-04-26T00:52:51.568Z,66.59
2023-04-26T00:55:18.726Z,69.16
2023-04-26T00:57:45.837Z,67.94
2023-04-26T01:00:12.796Z,67.38
2023-04-26T01:02:39.364Z,67.14
2023-04-26T01:05:06.774Z,70.03
2023-04-26T01:07:33.576Z,69.13
2023-04-26T01:10:00.244Z,67.95
2023-04-26T01:12:26.854Z,68.50
2023-04-26T01:14:53.801Z,68.33
2023-04-26T01:17:20.786Z,67.68
2023-04-26T01:19:48.380Z,70.41
2023-04-26T01:22:14.989Z,69.23
2023-04-26T01:24:44.752Z,68.63
2023-04-26T01:27:11.309Z,69.86
2023-04-26T01:29:37.869Z,68.89
2023-04-26T01:32:04.453Z,68.76
2023-04-26T01:50:22.034Z,75.94
2023-04-26T01:52:48.495Z,75.03
2023-04-26T01:55:14.942Z,75.21
2023-04-26T01:57:41.388Z,73.39
2023-04-26T02:00:09.015Z,73.45
2023-04-26T02:02:35.735Z,72.45
2023-04-26T02:05:02.368Z,71.10
2023-04-26T02:07:28.802Z,72.83
2023-04-26T02:09:55.219Z,71.31
2023-04-26T02:12:21.767Z,71.09
2023-04-26T02:14:48.315Z,71.67
2023-04-26T02:17:14.827Z,71.79
2023-04-26T02:19:41.287Z,71.95
2023-04-26T02:22:07.981Z,72.87
2023-04-26T02:24:34.350Z,73.65
2023-04-26T02:27:04.030Z,73.08
2023-04-26T02:29:43.549Z,72.75
2023-04-26T02:32:11.329Z,72.76
2023-04-26T02:34:37.718Z,73.01
2023-04-26T02:37:04.308Z,73.30
2023-04-26T02:39:31.576Z,73.22
2023-04-26T02:41:57.989Z,73.48
2023-04-26T02:44:24.468Z,72.32
2023-04-26T02:46:51.142Z,72.15
2023-04-26T02:49:17.622Z,72.17
2023-04-26T02:51:44.001Z,72.84
2023-04-26T02:54:10.423Z,72.23
2023-04-26T02:56:36.836Z,72.17
2023-04-26T02:59:03.262Z,72.85
2023-04-26T03:01:29.810Z,71.34
2023-04-26T03:03:56.409Z,73.09
2023-04-26T03:06:22.952Z,74.40
2023-04-26T03:08:49.498Z,74.59
2023-04-26T03:11:16.062Z,73.55
2023-04-26T03:13:42.496Z,74.83
2023-04-26T03:16:08.999Z,75.24
2023-04-26T03:18:35.917Z,74.01
2023-04-26T03:21:02.377Z,73.08
2023-04-26T03:23:29.365Z,74.41
2023-04-26T03:25:55.973Z,75.41
2023-04-26T03:28:22.406Z,74.88
2023-04-26T03:30:50.026Z,75.11
2023-04-26T03:33:16.909Z,76.08
2023-04-26T03:35:43.691Z,75.45
2023-04-26T03:38:10.035Z,74.22
2023-04-26T03:40:36.544Z,75.06
2023-04-26T03:43:03.052Z,74.44
2023-04-26T03:45:29.575Z,74.34
2023-04-26T03:47:56.826Z,74.71
2023-04-26T03:50:23.620Z,76.85
2023-04-26T03:52:49.936Z,76.08
2023-04-26T03:55:16.456Z,75.48
2023-04-26T03:57:42.898Z,76.09
2023-04-26T04:00:13.983Z,75.12
2023-04-26T04:02:41.291Z,76.99
2023-04-26T04:05:08.517Z,76.68
2023-04-26T04:07:35.296Z,75.52
2023-04-26T04:10:02.030Z,76.06
2023-04-26T04:12:28.445Z,76.38
2023-04-26T04:14:54.862Z,75.77
2023-04-26T04:17:21.283Z,74.80
2023-04-26T04:19:47.754Z,75.34
2023-04-26T04:22:14.151Z,77.11
2023-04-26T04:24:41.989Z,75.62
2023-04-26T04:27:08.926Z,75.76
2023-04-26T04:29:35.374Z,76.25
2023-04-26T04:32:02.247Z,75.95
2023-04-26T04:34:28.716Z,74.23
2023-04-26T04:36:55.108Z,75.85
2023-04-26T04:39:21.531Z,74.52
2023-04-26T04:41:48.404Z,75.18
2023-04-26T04:44:18.623Z,74.82
2023-04-26T04:46:45.134Z,75.59
2023-04-26T04:49:15.066Z,76.89
2023-04-26T04:51:41.517Z,74.05
2023-04-26T04:54:12.636Z,74.01
2023-04-26T04:56:39.936Z,74.56
2023-04-26T04:59:06.683Z,74.50
2023-04-26T05:01:33.289Z,73.63
2023-04-26T05:04:00.049Z,75.21
2023-04-26T05:06:32.150Z,75.19
2023-04-26T05:08:59.151Z,75.20
2023-04-26T05:11:25.870Z,75.20
2023-04-26T05:13:52.905Z,76.12
2023-04-26T05:16:19.589Z,73.76
2023-04-26T05:18:46.902Z,74.11
2023-04-26T05:21:13.348Z,74.05
2023-04-26T05:23:39.775Z,73.82
2023-04-26T05:26:09.153Z,74.08
2023-04-26T05:28:35.922Z,74.93
2023-04-26T05:31:02.375Z,75.13
2023-04-26T05:33:29.204Z,74.55
2023-04-26T05:35:58.040Z,73.32
2023-04-26T05:38:24.722Z,74.21
2023-04-26T05:40:51.226Z,74.14
2023-04-26T05:43:17.715Z,73.89
2023-04-26T05:45:54.046Z,74.79
2023-04-26T05:48:22.258Z,73.87
2023-04-26T05:50:49.508Z,72.98
2023-04-26T05:53:16.371Z,71.69
2023-04-26T05:55:43.413Z,72.08
2023-04-26T05:58:10.324Z,72.20
2023-04-26T06:00:38.578Z,71.50
2023-04-26T06:03:05.601Z,68.95
2023-04-26T06:05:32.507Z,68.48
2023-04-26T06:07:58.952Z,67.32
2023-04-26T06:10:25.577Z,67.63
2023-04-26T06:12:52.030Z,68.53
2023-04-26T06:15:18.697Z,66.93
2023-04-26T06:17:45.184Z,66.52
2023-04-26T06:20:11.731Z,67.57
2023-04-26T06:22:38.247Z,66.89
2023-04-26T06:25:05.761Z,65.48
2023-04-26T06:27:32.313Z,63.96
2023-04-26T06:29:58.800Z,61.04
2023-04-26T06:32:25.228Z,63.31
2023-04-26T06:34:51.767Z,63.14
2023-04-26T06:37:18.241Z,62.75
2023-04-26T06:39:44.682Z,63.73
2023-04-26T06:42:11.556Z,63.83
2023-04-26T06:44:37.973Z,64.28
2023-04-26T06:47:04.479Z,63.76
2023-04-26T06:49:30.946Z,63.14
2023-04-26T06:51:57.959Z,64.54
2023-04-26T06:54:30.198Z,64.40
2023-04-26T06:56:56.796Z,64.26
2023-04-26T06:59:23.630Z,64.23
2023-04-26T07:01:50.130Z,62.45
2023-04-26T07:04:18.825Z,63.57
2023-04-26T07:06:45.370Z,62.47
2023-04-26T07:09:12.540Z,64.68
2023-04-26T07:11:39.102Z,64.22
2023-04-26T07:14:05.574Z,62.58
2023-04-26T07:16:32.108Z,63.23
2023-04-26T07:18:58.639Z,62.86
2023-04-26T07:21:26.832Z,64.54
2023-04-26T07:23:55.677Z,62.88
2023-04-26T07:26:23.143Z,63.02
2023-04-26T07:28:51.456Z,62.80
2023-04-26T07:31:18.643Z,62.36
2023-04-26T07:33:45.221Z,61.70
2023-04-26T07:36:12.056Z,61.20
2023-04-26T07:38:38.688Z,62.02
2023-04-26T07:41:05.128Z,58.88
2023-04-26T07:43:31.611Z,58.72
2023-04-26T07:46:04.422Z,55.64
2023-04-26T07:48:30.913Z,54.40
2023-04-26T07:50:57.354Z,54.60
2023-04-26T07:53:23.778Z,56.83
2023-04-26T07:55:51.647Z,54.90
2023-04-26T07:58:19.394Z,57.27
2023-04-26T08:00:45.987Z,56.34
2023-04-26T08:03:15.691Z,56.52
2023-04-26T08:05:42.442Z,58.74
2023-04-26T08:08:09.310Z,58.09
2023-04-26T08:10:36.559Z,55.99
2023-04-26T08:13:03.543Z,54.93
2023-04-26T08:15:30.154Z,55.57
2023-04-26T08:17:56.778Z,55.55
2023-04-26T08:20:23.405Z,54.26
2023-04-26T08:22:50.041Z,56.58
2023-04-26T08:25:16.640Z,56.33
2023-04-26T08:27:44.863Z,56.02
2023-04-26T08:30:12.087Z,55.08
2023-04-26T08:32:38.711Z,55.79
2023-04-26T08:35:05.808Z,53.25
2023-04-26T08:37:32.284Z,54.86
2023-04-26T08:39:59.034Z,55.46
2023-04-26T08:42:26.926Z,56.08
2023-04-26T08:44:54.375Z,57.75
2023-04-26T08:47:36.819Z,56.77
2023-04-26T08:50:05.580Z,56.13
2023-04-26T08:52:32.553Z,55.21
2023-04-26T08:55:00.218Z,54.98
2023-04-26T08:57:27.101Z,54.58
2023-04-26T08:59:56.270Z,55.21
2023-04-26T09:02:23.923Z,54.30
2023-04-26T09:04:51.541Z,56.10
2023-04-26T09:07:30.545Z,54.19
2023-04-26T09:09:58.850Z,57.54
2023-04-26T09:12:25.802Z,56.67
2023-04-26T09:14:53.334Z,57.63
2023-04-26T09:17:31.353Z,56.98
2023-04-26T09:19:59.685Z,53.78
2023-04-26T09:22:36.751Z,53.02
2023-04-26T09:25:05.217Z,54.73
2023-04-26T09:27:33.917Z,56.25
2023-04-26T09:30:09.680Z,58.69
2023-04-26T09:32:56.551Z,58.21
2023-04-26T09:35:31.762Z,58.26
2023-04-26T09:38:03.364Z,57.79
2023-04-26T09:40:37.667Z,56.28
2023-04-26T09:43:05.842Z,54.63
2023-04-26T09:45:42.679Z,54.49
2023-04-26T09:48:23.483Z,54.36
2023-04-26T09:50:52.539Z,52.15
2023-04-26T09:53:39.871Z,53.33
2023-04-26T09:56:08.632Z,53.97
2023-04-26T09:58:38.370Z,54.53
2023-04-26T10:01:08.563Z,54.77
2023-04-26T10:03:35.301Z,54.97
2023-04-26T10:06:01.884Z,49.78
2023-04-26T10:08:28.297Z,50.23
2023-04-26T10:10:55.586Z,50.63
2023-04-26T10:13:22.108Z,52.19
2023-04-26T10:15:49.109Z,49.39
2023-04-26T10:18:16.030Z,51.55
2023-04-26T10:20:47.837Z,50.59
2023-04-26T10:23:22.191Z,50.85
2023-04-26T10:25:49.521Z,50.79
2023-04-26T10:28:16.386Z,51.82
2023-04-26T10:30:59.839Z,50.87
2023-04-26T10:33:28.611Z,50.76
2023-04-26T10:36:04.845Z,50.20
2023-04-26T10:38:32.483Z,52.30
2023-04-26T10:41:32.952Z,51.20
2023-04-26T10:44:20.618Z,49.92
2023-04-26T10:46:51.633Z,51.30
2023-04-26T10:49:19.958Z,50.34
2023-04-26T10:52:09.373Z,49.85
2023-04-26T10:54:58.154Z,49.49
2023-04-26T10:57:50.323Z,51.11
2023-04-26T11:00:26.816Z,49.23
2023-04-26T11:02:57.773Z,50.22
2023-04-26T11:05:47.860Z,47.72
2023-04-26T11:08:14.252Z,49.73
2023-04-26T11:10:41.673Z,47.58
2023-04-26T11:13:08.229Z,47.93
2023-04-26T11:15:35.551Z,47.26
2023-04-26T11:18:04.596Z,47.24
2023-04-26T11:20:32.579Z,48.15
2023-04-26T11:23:00.018Z,47.59
2023-04-26T11:25:29.682Z,47.73
2023-04-26T11:28:03.602Z,49.16
2023-04-26T11:30:32.023Z,47.44
2023-04-26T11:33:04.348Z,46.98
2023-04-26T11:35:35.056Z,47.75
2023-04-26T11:38:05.557Z,47.20
2023-04-26T11:40:33.574Z,46.75
2023-04-26T11:43:08.520Z,46.93
2023-04-26T11:45:36.694Z,45.62
2023-04-26T11:48:05.812Z,46.80
2023-04-26T11:50:34.218Z,45.68
2023-04-26T11:53:03.808Z,45.26
2023-04-26T11:55:33.151Z,46.45
2023-04-26T11:58:00.402Z,44.82
2023-04-26T12:00:27.802Z,43.20
2023-04-26T12:02:54.650Z,48.21
2023-04-26T12:05:30.744Z,45.82
2023-04-26T12:07:58.991Z,47.12
2023-04-26T12:10:32.560Z,46.78
2023-04-26T12:12:59.991Z,47.73
2023-04-26T12:15:31.871Z,48.66
2023-04-26T12:18:10.176Z,46.81
2023-04-26T12:20:39.998Z,46.41
2023-04-26T12:23:11.483Z,46.93
2023-04-26T12:25:42.035Z,47.16
2023-04-26T12:28:13.936Z,48.84
2023-04-26T12:30:41.121Z,47.25
2023-04-26T12:33:16.523Z,46.37
2023-04-26T12:35:44.375Z,45.75
2023-04-26T12:38:12.259Z,46.95
2023-04-26T12:40:39.110Z,46.64
2023-04-26T12:43:05.576Z,44.44
2023-04-26T12:45:32.143Z,45.70
2023-04-26T12:47:58.895Z,44.64
2023-04-26T12:50:28.154Z,45.64
2023-04-26T12:52:54.780Z,46.76
2023-04-26T12:55:21.346Z,46.75
2023-04-26T12:57:47.825Z,45.53
2023-04-26T13:00:17.085Z,48.04
2023-04-26T13:02:44.308Z,46.73
2023-04-26T13:05:10.980Z,45.62
2023-04-26T13:07:39.850Z,44.17
2023-04-26T13:10:07.667Z,43.28
2023-04-26T13:12:34.746Z,44.75
2023-04-26T13:15:01.220Z,42.12
2023-04-26T13:17:28.134Z,44.28
2023-04-26T13:19:54.648Z,45.85
2023-04-26T13:22:21.427Z,44.63
2023-04-26T13:24:47.864Z,44.33
2023-04-26T13:27:14.379Z,46.72
2023-04-26T13:29:41.247Z,44.88
2023-04-26T13:32:08.372Z,46.69
2023-04-26T13:34:39.717Z,46.20
2023-04-26T13:37:06.203Z,47.51
2023-04-26T13:39:32.693Z,47.20
2023-04-26T13:41:59.854Z,46.96
2023-04-26T13:44:27.049Z,46.22
2023-04-26T13:46:55.584Z,46.25
2023-04-26T13:49:23.130Z,45.10
2023-04-26T13:51:49.607Z,44.85
2023-04-26T13:54:16.871Z,45.42
2023-04-26T13:56:43.584Z,47.63
2023-04-26T13:59:10.172Z,44.94
2023-04-26T14:01:36.887Z,42.86
2023-04-26T14:04:04.570Z,44.67
2023-04-26T14:06:32.783Z,43.00
2023-04-26T14:08:59.378Z,43.63
2023-04-26T14:11:28.904Z,43.92
2023-04-26T14:13:59.753Z,44.36
2023-04-26T14:16:27.050Z,43.95
2023-04-26T14:18:53.660Z,42.91
2023-04-26T14:21:20.162Z,45.08
2023-04-26T14:23:46.609Z,42.93
2023-04-26T14:26:13.408Z,43.20
2023-04-26T14:28:41.185Z,42.79
2023-04-26T14:31:08.313Z,43.34
2023-04-26T14:33:37.855Z,44.07
2023-04-26T14:39:20.348Z,46.01
2023-04-26T14:41:47.132Z,45.32
2023-04-26T14:44:13.628Z,44.93
2023-04-26T14:46:45.886Z,44.95
2023-04-26T14:49:12.369Z,44.06
2023-04-26T14:51:38.846Z,44.87
2023-04-26T14:54:08.463Z,44.66
2023-04-26T14:56:35.505Z,44.46
2023-04-26T14:59:40.775Z,45.52
2023-04-26T15:02:07.336Z,46.44
2023-04-26T15:04:34.017Z,46.29
2023-04-26T15:07:00.743Z,45.56
2023-04-26T15:09:28.993Z,44.16
2023-04-26T15:11:56.985Z,45.67
2023-04-26T15:14:23.868Z,45.63
2023-04-26T15:16:50.386Z,47.62
2023-04-26T15:19:17.556Z,45.83
2023-04-26T15:21:44.034Z,45.04
2023-04-26T15:24:10.522Z,45.30
2023-04-26T15:26:37.073Z,45.65
2023-04-26T15:29:03.648Z,45.26
2023-04-26T15:31:30.177Z,46.11
2023-04-26T15:33:56.967Z,46.82
2023-04-26T15:36:23.399Z,45.59
2023-04-26T15:38:50.062Z,49.31
2023-04-26T15:41:16.477Z,49.31
2023-04-26T15:43:42.941Z,45.37
2023-04-26T15:46:09.394Z,45.97
2023-04-26T15:48:36.572Z,49.98
2023-04-26T15:51:05.179Z,47.47
2023-04-26T15:53:31.611Z,47.62
2023-04-26T15:55:58.035Z,46.57
2023-04-26T15:58:24.573Z,46.01
2023-04-26T16:00:51.002Z,47.28
2023-04-26T16:03:17.665Z,47.22
2023-04-26T16:05:46.350Z,46.32
2023-04-26T16:08:12.930Z,47.85
2023-04-26T16:10:39.393Z,48.59
2023-04-26T16:13:06.057Z,48.20
2023-04-26T16:15:32.487Z,49.54
2023-04-26T16:17:59.327Z,48.82
2023-04-26T16:20:26.132Z,48.68
2023-04-26T16:22:53.051Z,48.45
2023-04-26T16:25:19.520Z,48.60
2023-04-26T16:27:46.442Z,48.84
2023-04-26T16:30:13.834Z,49.16
2023-04-26T16:32:40.480Z,49.17
2023-04-26T16:35:08.783Z,49.82
2023-04-26T16:37:35.706Z,48.81
2023-04-26T16:40:03.425Z,48.62
2023-04-26T16:42:30.077Z,48.76
2023-04-26T16:44:56.691Z,49.92
2023-04-26T16:47:23.123Z,48.28
2023-04-26T16:49:49.569Z,49.13
2023-04-26T16:52:16.280Z,50.93
2023-04-26T16:54:43.011Z,52.33
2023-04-26T16:57:11.082Z,49.40
2023-04-26T16:59:37.490Z,49.08
2023-04-26T17:02:03.983Z,49.45
2023-04-26T17:04:30.732Z,48.93
2023-04-26T17:06:57.220Z,47.63
2023-04-26T17:09:23.965Z,48.43
2023-04-26T17:11:51.004Z,47.15
2023-04-26T17:14:17.693Z,48.23
2023-04-26T17:16:44.355Z,47.09
2023-04-26T17:19:11.032Z,49.47
2023-04-26T17:21:37.587Z,48.54
2023-04-26T17:24:04.170Z,48.87
2023-04-26T17:26:31.189Z,48.85
2023-04-26T17:28:57.601Z,51.15
2023-04-26T17:31:24.230Z,53.43
2023-04-26T17:33:50.764Z,50.33
2023-04-26T17:36:17.816Z,50.01
2023-04-26T17:38:44.265Z,50.00
2023-04-26T17:41:14.106Z,49.98
2023-04-26T17:43:40.604Z,50.01
2023-04-26T17:46:07.100Z,50.60
2023-04-26T17:48:33.536Z,49.56
2023-04-26T17:51:00.222Z,50.56
2023-04-26T17:53:27.402Z,52.31
2023-04-26T17:55:53.882Z,50.55
2023-04-26T17:58:23.433Z,50.28
2023-04-26T18:00:52.980Z,52.05
2023-04-26T18:03:21.515Z,51.51
2023-04-26T18:05:48.401Z,52.82
2023-04-26T18:08:17.265Z,51.75
2023-04-26T18:10:43.820Z,51.83
2023-04-26T18:13:16.688Z,52.50
2023-04-26T18:15:43.408Z,53.10
2023-04-26T18:18:09.945Z,53.39
2023-04-26T18:20:39.288Z,52.57
2023-04-26T18:23:06.439Z,53.48
2023-04-26T18:25:32.910Z,54.26
2023-04-26T18:27:59.326Z,53.71
2023-04-26T18:30:25.837Z,53.61
2023-04-26T18:32:53.138Z,54.45
2023-04-26T18:35:19.819Z,54.77
2023-04-26T18:37:46.388Z,54.47
2023-04-26T18:40:13.259Z,55.08
2023-04-26T18:42:39.884Z,55.65
2023-04-26T18:45:07.203Z,55.05
2023-04-26T18:47:35.512Z,54.90
2023-04-26T18:50:02.124Z,55.46
2023-04-26T18:52:31.495Z,56.17
2023-04-26T18:54:58.195Z,57.16
2023-04-26T18:57:29.644Z,58.41
2023-04-26T18:59:57.349Z,59.95
2023-04-26T19:02:23.910Z,60.05
2023-04-26T19:04:50.861Z,59.84
2023-04-26T19:07:17.530Z,60.16
2023-04-26T19:09:53.569Z,60.21
2023-04-26T19:12:21.077Z,61.48
2023-04-26T19:14:47.578Z,60.77
2023-04-26T19:17:14.102Z,60.73
2023-04-26T19:19:40.612Z,61.20
2023-04-26T19:22:07.156Z,61.63
2023-04-26T19:24:33.728Z,61.56
2023-04-26T19:27:00.782Z,62.33
2023-04-26T19:29:27.289Z,61.88
2023-04-26T19:31:53.729Z,62.49
2023-04-26T19:34:20.218Z,62.94
2023-04-26T19:36:46.779Z,63.46
2023-04-26T19:39:13.230Z,64.02
2023-04-26T19:41:39.664Z,63.97
2023-04-26T19:44:06.159Z,65.03
2023-04-26T19:46:32.918Z,64.78
2023-04-26T19:48:59.385Z,64.86
2023-04-26T19:51:25.918Z,65.45
2023-04-26T19:53:52.408Z,65.56
2023-04-26T19:56:18.846Z,65.88
2023-04-26T19:58:45.291Z,65.87
2023-04-26T20:01:11.957Z,66.49
2023-04-26T20:03:39.395Z,66.69
2023-04-26T20:06:06.231Z,68.02
2023-04-26T20:08:34.420Z,66.91
2023-04-26T20:11:05.188Z,66.88
2023-04-26T20:13:32.669Z,66.80
2023-04-26T20:15:59.316Z,68.25
2023-04-26T20:18:25.880Z,67.55
2023-04-26T20:20:53.535Z,67.89
2023-04-26T20:23:19.985Z,67.71
2023-04-26T20:25:46.510Z,68.01
2023-04-26T20:28:12.965Z,68.02
2023-04-26T20:30:39.384Z,68.42
2023-04-26T20:33:06.041Z,68.22
2023-04-26T20:35:33.695Z,67.59
2023-04-26T20:38:00.191Z,67.88
2023-04-26T20:40:26.713Z,68.63
2023-04-26T20:42:53.223Z,69.72
2023-04-26T20:45:19.743Z,69.84
2023-04-26T20:47:48.766Z,70.25
2023-04-26T20:50:15.672Z,70.49
2023-04-26T20:52:42.167Z,70.40
2023-04-26T20:55:09.013Z,69.77
2023-04-26T20:57:36.406Z,69.31
2023-04-26T21:00:03.625Z,68.55
2023-04-26T21:02:30.568Z,67.19
2023-04-26T21:04:57.453Z,67.66
2023-04-26T21:07:24.211Z,67.79
2023-04-26T21:09:51.188Z,67.95
2023-04-26T21:12:17.717Z,67.87
2023-04-26T21:14:45.904Z,67.51
2023-04-26T21:17:12.398Z,67.48
2023-04-26T21:19:38.841Z,67.86
2023-04-26T21:22:05.343Z,68.24
2023-04-26T21:24:31.820Z,68.46
2023-04-26T21:26:58.257Z,68.15
2023-04-26T21:29:24.698Z,68.55
2023-04-26T21:31:51.218Z,69.79
2023-04-26T21:34:17.710Z,69.75
2023-04-26T21:36:44.164Z,68.70
2023-04-26T21:39:11.751Z,68.46
2023-04-26T21:41:38.336Z,68.75
2023-04-26T21:44:04.895Z,68.20
2023-04-26T21:46:31.486Z,69.16
2023-04-26T21:48:57.928Z,69.08
2023-04-26T21:51:24.580Z,69.50
2023-04-26T21:53:51.006Z,68.58
2023-04-26T21:56:17.437Z,68.03
2023-04-26T21:58:43.873Z,67.94
2023-04-26T22:01:13.118Z,68.22
2023-04-26T22:03:39.839Z,67.60
2023-04-26T22:06:06.948Z,66.82
2023-04-26T22:08:33.663Z,67.49
2023-04-26T22:11:00.029Z,66.06
2023-04-26T22:13:26.538Z,66.53
2023-04-26T22:15:53.048Z,66.31
2023-04-26T22:18:19.465Z,66.18
2023-04-26T22:20:45.959Z,65.85
2023-04-26T22:23:12.386Z,65.77
2023-04-26T22:25:39.147Z,65.38
2023-04-26T22:28:05.920Z,65.31
2023-04-26T22:30:32.638Z,65.21
2023-04-26T22:32:59.768Z,65.20
2023-04-26T22:35:27.609Z,66.25
2023-04-26T22:37:54.767Z,65.35
2023-04-26T22:40:21.476Z,65.31
2023-04-26T22:42:47.866Z,65.15
2023-04-26T22:45:14.532Z,65.97
2023-04-26T22:47:41.047Z,64.83
2023-04-26T22:50:08.137Z,64.26
2023-04-26T22:52:35.778Z,64.74
2023-04-26T22:55:02.721Z,64.58
2023-04-26T22:57:29.960Z,65.03
2023-04-26T22:59:56.729Z,64.96
2023-04-26T23:02:23.335Z,65.12
2023-04-26T23:04:49.983Z,66.32
2023-04-26T23:07:16.605Z,66.42
2023-04-26T23:09:43.146Z,66.10
2023-04-26T23:12:09.835Z,65.57
2023-04-26T23:14:36.368Z,65.54
2023-04-26T23:17:02.945Z,64.70
2023-04-26T23:19:29.463Z,65.01
2023-04-26T23:21:55.997Z,64.79
2023-04-26T23:24:22.434Z,63.53
2023-04-26T23:26:48.888Z,64.39
2023-04-26T23:29:15.497Z,64.13
2023-04-26T23:31:42.079Z,63.95
2023-04-26T23:34:08.607Z,65.47
2023-04-26T23:36:35.057Z,65.80
2023-04-26T23:39:01.492Z,65.81
2023-04-26T23:41:27.938Z,65.12
2023-04-26T23:43:54.538Z,65.61
2023-04-26T23:46:21.066Z,65.30
2023-04-26T23:48:47.526Z,65.06
2023-04-26T23:51:13.916Z,64.97
2023-04-26T23:53:40.396Z,65.53
2023-04-26T23:56:07.799Z,64.88
2023-04-26T23:58:34.264Z,65.20
